createdAt,value
2019-02-21T00:00:10.362Z,9.00
2019-02-21T00:02:38.862Z,8.90
2019-02-21T00:05:07.218Z,8.90
2019-02-21T00:07:36.003Z,9.00
2019-02-21T00:10:04.781Z,8.90
2019-02-21T00:12:33.502Z,8.80
2019-02-21T00:15:01.843Z,8.80
2019-02-21T00:17:29.993Z,8.70
2019-02-21T00:19:58.770Z,8.80
2019-02-21T00:22:26.901Z,8.70
2019-02-21T00:24:55.613Z,8.60
2019-02-21T00:27:24.777Z,8.70
2019-02-21T00:29:53.489Z,8.70
2019-02-21T00:32:21.407Z,8.80
2019-02-21T00:34:50.031Z,8.70
2019-02-21T00:37:18.619Z,8.70
2019-02-21T00:39:47.051Z,8.60
2019-02-21T00:42:16.029Z,8.70
2019-02-21T00:44:44.417Z,8.70
2019-02-21T00:47:13.477Z,8.70
2019-02-21T00:49:41.393Z,8.60
2019-02-21T00:52:10.629Z,8.60
2019-02-21T00:54:38.601Z,8.50
2019-02-21T00:57:06.756Z,8.50
2019-02-21T00:59:34.657Z,8.50
2019-02-21T01:02:02.673Z,8.60
2019-02-21T01:04:30.597Z,8.50
2019-02-21T01:06:58.606Z,8.40
2019-02-21T01:09:32.819Z,8.30
2019-02-21T01:12:00.913Z,8.20
2019-02-21T01:14:28.806Z,8.30
2019-02-21T01:16:56.814Z,8.30
2019-02-21T01:19:29.257Z,8.30
2019-02-21T01:21:57.338Z,8.30
2019-02-21T01:24:25.334Z,8.30
2019-02-21T01:26:53.250Z,8.20
2019-02-21T01:29:21.347Z,8.00
2019-02-21T01:31:49.339Z,8.00
2019-02-21T01:34:17.229Z,8.10
2019-02-21T01:36:45.241Z,7.90
2019-02-21T01:39:13.318Z,7.80
2019-02-21T01:41:41.482Z,7.80
2019-02-21T01:44:09.434Z,7.90
2019-02-21T01:46:37.349Z,7.70
2019-02-21T01:49:05.718Z,7.50
2019-02-21T01:51:34.113Z,7.60
2019-02-21T01:54:02.654Z,7.70
2019-02-21T01:56:31.594Z,7.60
2019-02-21T01:59:00.381Z,7.70
2019-02-21T02:01:28.897Z,7.80
2019-02-21T02:03:57.409Z,7.70
2019-02-21T02:06:26.162Z,7.80
2019-02-21T02:08:55.170Z,7.70
2019-02-21T02:11:23.720Z,7.70
2019-02-21T02:13:52.373Z,7.80
2019-02-21T02:16:21.005Z,7.80
2019-02-21T02:18:49.425Z,7.90
2019-02-21T02:21:17.881Z,7.80
2019-02-21T02:23:46.050Z,7.90
2019-02-21T02:26:14.431Z,7.90
2019-02-21T02:28:42.675Z,7.90
2019-02-21T02:31:22.083Z,8.00
2019-02-21T02:33:41.786Z,8.00
2019-02-21T02:36:13.130Z,8.00
2019-02-21T02:38:41.800Z,8.00
2019-02-21T02:41:10.578Z,7.90
2019-02-21T02:43:40.158Z,7.90
2019-02-21T02:46:08.158Z,7.80
2019-02-21T02:48:36.411Z,7.60
2019-02-21T02:51:04.742Z,7.60
2019-02-21T02:53:32.969Z,7.60
2019-02-21T02:56:00.998Z,7.70
2019-02-21T02:58:28.977Z,7.70
2019-02-21T03:00:57.106Z,7.60
2019-02-21T03:03:25.225Z,7.60
2019-02-21T03:05:53.302Z,7.70
2019-02-21T03:08:21.403Z,7.70
2019-02-21T03:10:49.380Z,7.80
2019-02-21T03:13:17.450Z,7.90
2019-02-21T03:15:45.407Z,7.90
2019-02-21T03:18:13.342Z,7.80
2019-02-21T03:20:41.330Z,7.80
2019-02-21T03:23:09.321Z,7.90
2019-02-21T03:25:37.297Z,7.80
2019-02-21T03:28:05.229Z,8.00
2019-02-21T03:30:33.438Z,8.00
2019-02-21T03:33:01.748Z,7.90
2019-02-21T03:35:30.597Z,8.00
2019-02-21T03:37:58.766Z,8.00
2019-02-21T03:40:26.903Z,7.90
2019-02-21T03:42:54.952Z,8.00
2019-02-21T03:45:23.433Z,7.90
2019-02-21T03:47:51.617Z,8.00
2019-02-21T03:50:19.562Z,7.90
2019-02-21T03:52:48.023Z,8.00
2019-02-21T03:55:16.114Z,8.00
2019-02-21T03:57:44.140Z,8.00
2019-02-21T04:00:12.292Z,7.90
2019-02-21T04:02:40.445Z,8.10
2019-02-21T04:05:08.815Z,8.00
2019-02-21T04:07:36.849Z,8.10
2019-02-21T04:10:05.044Z,8.10
2019-02-21T04:12:33.986Z,8.10
2019-02-21T04:15:02.416Z,8.00
2019-02-21T04:17:30.501Z,8.00
2019-02-21T04:19:58.679Z,8.00
2019-02-21T04:22:27.105Z,8.10
2019-02-21T04:24:55.494Z,8.00
2019-02-21T04:27:23.709Z,7.90
2019-02-21T04:29:52.037Z,7.90
2019-02-21T04:32:20.125Z,7.90
2019-02-21T04:34:48.114Z,7.90
2019-02-21T04:37:16.267Z,7.80
2019-02-21T04:39:46.973Z,7.80
2019-02-21T04:42:15.934Z,7.80
2019-02-21T04:44:44.123Z,7.70
2019-02-21T04:47:12.417Z,7.80
2019-02-21T04:49:40.354Z,7.80
2019-02-21T04:52:08.632Z,7.80
2019-02-21T04:54:36.868Z,7.70
2019-02-21T04:57:05.082Z,7.70
2019-02-21T04:59:33.210Z,7.70
2019-02-21T05:02:01.267Z,7.60
2019-02-21T05:04:29.321Z,7.60
2019-02-21T05:06:57.460Z,7.70
2019-02-21T05:09:27.200Z,7.70
2019-02-21T05:11:55.445Z,7.70
2019-02-21T05:14:27.300Z,7.70
2019-02-21T05:16:55.677Z,7.80
2019-02-21T05:19:24.122Z,7.80
2019-02-21T05:21:52.188Z,7.80
2019-02-21T05:24:22.139Z,7.90
2019-02-21T05:26:57.439Z,7.80
2019-02-21T05:29:25.457Z,7.70
2019-02-21T05:32:16.425Z,7.80
2019-02-21T05:34:49.790Z,7.70
2019-02-21T05:37:29.727Z,7.70
2019-02-21T05:40:15.003Z,7.80
2019-02-21T05:43:11.842Z,7.80
2019-02-21T05:45:51.670Z,7.70
2019-02-21T05:48:40.525Z,7.70
2019-02-21T05:51:36.697Z,7.80
2019-02-21T05:54:12.830Z,7.80
2019-02-21T05:56:58.368Z,7.70
2019-02-21T05:59:57.085Z,7.70
2019-02-21T06:02:58.800Z,7.60
2019-02-21T06:05:40.389Z,7.60
2019-02-21T06:08:32.572Z,7.70
2019-02-21T06:11:19.150Z,7.70
2019-02-21T06:14:21.351Z,7.60
2019-02-21T06:16:58.566Z,7.60
2019-02-21T06:19:43.997Z,7.60
2019-02-21T06:22:23.861Z,7.60
2019-02-21T06:24:59.582Z,7.70
2019-02-21T06:27:38.146Z,7.60
2019-02-21T06:30:10.990Z,7.70
2019-02-21T06:32:40.754Z,7.70
2019-02-21T06:35:10.986Z,7.70
2019-02-21T06:37:39.255Z,7.60
2019-02-21T06:40:08.074Z,7.70
2019-02-21T06:42:38.735Z,7.60
2019-02-21T06:45:07.496Z,7.60
2019-02-21T06:47:36.052Z,7.70
2019-02-21T06:50:04.499Z,7.70
2019-02-21T06:52:32.769Z,7.60
2019-02-21T06:55:02.263Z,7.70
2019-02-21T06:57:32.547Z,7.70
2019-02-21T07:00:01.939Z,7.70
2019-02-21T07:02:30.113Z,7.70
2019-02-21T07:05:01.128Z,7.80
2019-02-21T07:07:29.309Z,7.90
2019-02-21T07:09:58.030Z,7.90
2019-02-21T07:12:26.354Z,8.00
2019-02-21T07:14:54.910Z,8.10
2019-02-21T07:17:23.422Z,8.10
2019-02-21T07:19:51.645Z,8.10
2019-02-21T07:22:23.102Z,8.20
2019-02-21T07:24:55.505Z,8.20
2019-02-21T07:27:22.537Z,8.30
2019-02-21T07:29:51.974Z,8.40
2019-02-21T07:32:20.661Z,8.50
2019-02-21T07:34:49.034Z,8.70
2019-02-21T07:37:18.951Z,8.70
2019-02-21T07:39:47.111Z,8.80
2019-02-21T07:42:16.357Z,8.80
2019-02-21T07:44:45.488Z,8.80
2019-02-21T07:47:14.002Z,8.90
2019-02-21T07:49:42.189Z,8.80
2019-02-21T07:52:10.502Z,8.90
2019-02-21T07:54:39.165Z,9.00
2019-02-21T07:57:08.611Z,9.00
2019-02-21T07:59:37.488Z,9.00
2019-02-21T08:02:05.873Z,9.10
2019-02-21T08:04:36.913Z,9.20
2019-02-21T08:07:04.855Z,9.20
2019-02-21T08:09:33.539Z,9.30
2019-02-21T08:12:04.526Z,9.50
2019-02-21T08:14:34.176Z,9.70
2019-02-21T08:17:02.239Z,9.80
2019-02-21T08:19:32.982Z,9.90
2019-02-21T08:22:01.282Z,10.20
2019-02-21T08:24:29.770Z,10.40
2019-02-21T08:26:58.594Z,10.60
2019-02-21T08:29:26.933Z,10.80
2019-02-21T08:31:55.380Z,11.00
2019-02-21T08:34:27.939Z,11.10
2019-02-21T08:36:56.134Z,11.30
2019-02-21T08:39:24.298Z,11.30
2019-02-21T08:41:55.171Z,11.20
2019-02-21T08:44:23.598Z,11.20
2019-02-21T08:46:57.120Z,11.20
2019-02-21T08:49:27.428Z,11.20
2019-02-21T08:51:56.240Z,11.20
2019-02-21T08:54:24.826Z,11.10
2019-02-21T08:56:53.245Z,11.20
2019-02-21T08:59:21.527Z,11.30
2019-02-21T09:01:49.466Z,11.30
2019-02-21T09:04:26.826Z,11.40
2019-02-21T09:06:48.106Z,11.40
2019-02-21T09:09:15.488Z,11.50
2019-02-21T09:11:43.588Z,11.40
2019-02-21T09:14:11.993Z,11.20
2019-02-21T09:16:40.290Z,11.40
2019-02-21T09:19:08.435Z,11.50
2019-02-21T09:21:38.411Z,11.70
2019-02-21T09:24:37.571Z,11.80
2019-02-21T09:26:50.211Z,11.80
2019-02-21T09:29:21.297Z,11.80
2019-02-21T09:31:48.437Z,11.70
2019-02-21T09:34:21.197Z,11.80
2019-02-21T09:36:44.471Z,11.60
2019-02-21T09:39:11.539Z,11.50
2019-02-21T09:41:38.758Z,11.40
2019-02-21T09:44:08.045Z,11.30
2019-02-21T09:46:35.797Z,11.30
2019-02-21T09:49:03.360Z,11.40
2019-02-21T09:51:32.763Z,11.40
2019-02-21T09:54:00.786Z,11.70
2019-02-21T09:56:30.751Z,11.80
2019-02-21T09:59:02.138Z,12.00
2019-02-21T10:01:30.695Z,12.00
2019-02-21T10:03:59.041Z,12.10
2019-02-21T10:06:27.461Z,12.20
2019-02-21T10:09:02.334Z,12.20
2019-02-21T10:11:29.914Z,12.10
2019-02-21T10:13:58.077Z,12.20
2019-02-21T10:16:26.597Z,12.30
2019-02-21T10:18:55.385Z,12.40
2019-02-21T10:21:25.157Z,12.40
2019-02-21T10:23:53.462Z,12.40
2019-02-21T10:26:21.645Z,12.30
2019-02-21T10:28:50.097Z,12.30
2019-02-21T10:31:18.894Z,12.30
2019-02-21T10:33:50.448Z,12.30
2019-02-21T10:36:18.797Z,12.40
2019-02-21T10:38:47.224Z,12.50
2019-02-21T10:41:15.960Z,12.30
2019-02-21T10:43:44.205Z,12.70
2019-02-21T10:46:15.946Z,12.90
2019-02-21T10:48:43.977Z,13.20
2019-02-21T10:51:12.397Z,13.70
2019-02-21T10:53:40.405Z,14.30
2019-02-21T10:56:08.801Z,14.60
2019-02-21T10:58:42.277Z,14.80
2019-02-21T11:01:10.657Z,15.00
2019-02-21T11:03:39.329Z,15.10
2019-02-21T11:06:08.022Z,15.30
2019-02-21T11:08:35.446Z,15.70
2019-02-21T11:11:05.269Z,15.90
2019-02-21T11:13:33.713Z,16.00
2019-02-21T11:16:01.842Z,15.80
2019-02-21T11:18:29.985Z,15.50
2019-02-21T11:20:59.374Z,15.40
2019-02-21T11:23:30.715Z,15.20
2019-02-21T11:25:59.083Z,15.10
2019-02-21T11:28:27.230Z,15.10
2019-02-21T11:30:55.369Z,15.20
2019-02-21T11:33:23.596Z,15.20
2019-02-21T11:35:55.681Z,15.20
2019-02-21T11:38:24.550Z,15.20
2019-02-21T11:40:52.582Z,15.10
2019-02-21T11:43:20.642Z,15.10
2019-02-21T11:45:55.128Z,15.10
2019-02-21T11:48:19.848Z,15.20
2019-02-21T11:50:47.965Z,15.60
2019-02-21T11:53:16.200Z,15.80
2019-02-21T11:55:44.125Z,15.70
2019-02-21T11:58:12.184Z,15.60
2019-02-21T12:00:40.314Z,15.40
2019-02-21T12:03:12.189Z,15.20
2019-02-21T12:05:40.398Z,15.10
2019-02-21T12:08:08.827Z,15.20
2019-02-21T12:10:36.745Z,15.00
2019-02-21T12:13:04.889Z,14.90
2019-02-21T12:15:35.994Z,14.60
2019-02-21T12:18:04.137Z,14.80
2019-02-21T12:20:32.149Z,15.00
2019-02-21T12:23:00.300Z,15.30
2019-02-21T12:25:28.405Z,15.40
2019-02-21T12:28:00.058Z,15.80
2019-02-21T12:30:28.391Z,15.90
2019-02-21T12:32:56.454Z,15.90
2019-02-21T12:35:29.758Z,15.70
2019-02-21T12:37:54.713Z,15.70
2019-02-21T12:40:27.035Z,15.30
2019-02-21T12:42:55.126Z,15.10
2019-02-21T12:45:23.169Z,14.90
2019-02-21T12:47:53.732Z,14.80
2019-02-21T12:50:21.432Z,14.80
2019-02-21T12:52:50.922Z,14.70
2019-02-21T12:55:27.958Z,14.70
2019-02-21T12:57:49.138Z,14.60
2019-02-21T13:00:17.535Z,14.40
2019-02-21T13:02:45.717Z,14.30
2019-02-21T13:05:16.002Z,14.40
2019-02-21T13:07:44.017Z,14.50
2019-02-21T13:10:13.389Z,14.30
2019-02-21T13:12:41.424Z,14.50
2019-02-21T13:15:10.578Z,14.30
2019-02-21T13:17:41.685Z,14.20
2019-02-21T13:20:09.981Z,14.20
2019-02-21T13:22:37.102Z,14.30
2019-02-21T13:25:05.765Z,14.40
2019-02-21T13:27:33.877Z,14.40
2019-02-21T13:30:03.786Z,14.40
2019-02-21T13:32:31.829Z,14.40
2019-02-21T13:34:59.781Z,14.30
2019-02-21T13:37:28.997Z,14.40
2019-02-21T13:39:57.377Z,14.60
2019-02-21T13:42:29.593Z,14.70
2019-02-21T13:44:57.768Z,14.90
2019-02-21T13:47:25.788Z,14.90
2019-02-21T13:49:53.806Z,14.80
2019-02-21T13:52:22.213Z,14.80
2019-02-21T13:54:55.206Z,14.90
2019-02-21T13:57:23.227Z,14.80
2019-02-21T13:59:51.169Z,15.00
2019-02-21T14:02:19.247Z,15.00
2019-02-21T14:04:47.290Z,15.10
2019-02-21T14:07:20.249Z,15.20
2019-02-21T14:09:47.488Z,15.40
2019-02-21T14:12:15.719Z,15.50
2019-02-21T14:14:43.741Z,15.30
2019-02-21T14:17:14.918Z,15.20
2019-02-21T14:19:43.258Z,15.00
2019-02-21T14:22:11.173Z,15.00
2019-02-21T14:24:39.565Z,15.00
2019-02-21T14:27:08.818Z,15.00
2019-02-21T14:29:39.531Z,15.00
2019-02-21T14:32:08.504Z,15.00
2019-02-21T14:34:36.769Z,14.90
2019-02-21T14:37:05.034Z,14.80
2019-02-21T14:39:33.909Z,14.70
2019-02-21T14:42:04.363Z,14.60
2019-02-21T14:44:32.342Z,14.70
2019-02-21T14:47:00.523Z,14.60
2019-02-21T14:49:28.436Z,14.60
2019-02-21T14:51:57.196Z,14.60
2019-02-21T14:54:25.881Z,14.60
2019-02-21T14:56:54.042Z,14.60
2019-02-21T14:59:22.287Z,14.40
2019-02-21T15:01:50.453Z,14.40
2019-02-21T15:04:18.831Z,14.40
2019-02-21T15:06:47.349Z,14.40
2019-02-21T15:09:15.795Z,14.40
2019-02-21T15:11:44.431Z,14.40
2019-02-21T15:14:12.842Z,14.30
2019-02-21T15:16:40.999Z,14.10
2019-02-21T15:19:09.477Z,14.00
2019-02-21T15:21:37.649Z,13.80
2019-02-21T15:24:06.605Z,13.90
2019-02-21T15:26:35.175Z,14.00
2019-02-21T15:29:04.281Z,13.80
2019-02-21T15:31:32.661Z,13.80
2019-02-21T15:34:04.464Z,13.90
2019-02-21T15:36:38.262Z,13.90
2019-02-21T15:39:04.640Z,13.90
2019-02-21T15:41:33.490Z,13.80
2019-02-21T15:44:05.982Z,13.80
2019-02-21T15:46:34.126Z,13.90
2019-02-21T15:49:02.845Z,13.80
2019-02-21T15:51:31.337Z,13.90
2019-02-21T15:53:59.513Z,13.90
2019-02-21T15:56:30.249Z,13.90
2019-02-21T15:58:58.412Z,13.60
2019-02-21T16:01:26.621Z,13.70
2019-02-21T16:03:55.235Z,13.70
2019-02-21T16:06:23.601Z,13.60
2019-02-21T16:08:52.417Z,13.50
2019-02-21T16:11:20.979Z,13.50
2019-02-21T16:14:02.037Z,13.40
2019-02-21T16:16:21.224Z,13.30
2019-02-21T16:18:50.329Z,13.20
2019-02-21T16:21:18.943Z,13.30
2019-02-21T16:23:47.102Z,13.20
2019-02-21T16:26:15.262Z,13.20
2019-02-21T16:28:43.681Z,13.20
2019-02-21T16:31:11.809Z,13.20
2019-02-21T16:33:40.542Z,13.30
2019-02-21T16:36:09.296Z,13.30
2019-02-21T16:38:37.873Z,13.30
2019-02-21T16:41:05.950Z,13.30
2019-02-21T16:43:34.508Z,13.30
2019-02-21T16:46:07.891Z,13.30
2019-02-21T16:48:33.022Z,13.30
2019-02-21T16:51:01.425Z,13.40
2019-02-21T16:53:29.445Z,13.30
2019-02-21T16:55:57.616Z,13.20
2019-02-21T16:58:25.728Z,13.30
2019-02-21T17:00:56.775Z,13.00
2019-02-21T17:03:24.958Z,13.20
2019-02-21T17:05:53.357Z,13.10
2019-02-21T17:08:22.173Z,13.10
2019-02-21T17:10:50.078Z,13.10
2019-02-21T17:13:18.577Z,13.10
2019-02-21T17:15:47.141Z,13.00
2019-02-21T17:18:15.379Z,13.10
2019-02-21T17:20:43.493Z,13.10
2019-02-21T17:23:22.275Z,13.00
2019-02-21T17:25:41.578Z,13.10
2019-02-21T17:28:09.707Z,13.00
2019-02-21T17:30:37.629Z,13.00
2019-02-21T17:33:06.059Z,13.00
2019-02-21T17:35:33.981Z,13.00
2019-02-21T17:38:02.022Z,12.90
2019-02-21T17:40:30.115Z,12.90
2019-02-21T17:42:58.135Z,12.80
2019-02-21T17:45:26.222Z,12.90
2019-02-21T17:47:54.233Z,12.90
2019-02-21T17:50:22.289Z,12.80
2019-02-21T17:52:50.372Z,12.80
2019-02-21T17:55:18.517Z,12.80
2019-02-21T17:57:46.919Z,12.70
2019-02-21T18:00:18.649Z,12.80
2019-02-21T18:02:46.576Z,12.80
2019-02-21T18:05:14.646Z,12.80
2019-02-21T18:07:42.564Z,12.80
2019-02-21T18:10:11.589Z,12.90
2019-02-21T18:12:39.737Z,12.80
2019-02-21T18:15:08.354Z,12.90
2019-02-21T18:17:36.384Z,12.90
2019-02-21T18:20:04.990Z,12.90
2019-02-21T18:22:32.966Z,12.90
2019-02-21T18:25:01.002Z,12.70
2019-02-21T18:27:29.697Z,12.80
2019-02-21T18:29:58.522Z,12.80
2019-02-21T18:32:26.453Z,12.80
2019-02-21T18:34:54.523Z,12.80
2019-02-21T18:37:22.631Z,12.70
2019-02-21T18:39:50.763Z,12.80
2019-02-21T18:42:18.954Z,12.80
2019-02-21T18:44:47.174Z,12.80
2019-02-21T18:47:15.208Z,12.70
2019-02-21T18:49:43.345Z,12.80
2019-02-21T18:52:12.283Z,12.80
2019-02-21T18:54:40.465Z,12.70
2019-02-21T18:57:08.650Z,12.70
2019-02-21T18:59:36.676Z,12.80
2019-02-21T19:02:07.363Z,12.70
2019-02-21T19:04:35.475Z,12.70
2019-02-21T19:07:03.625Z,12.60
2019-02-21T19:09:35.027Z,12.70
2019-02-21T19:12:03.229Z,12.60
2019-02-21T19:14:31.287Z,12.50
2019-02-21T19:16:59.431Z,12.40
2019-02-21T19:19:27.580Z,12.40
2019-02-21T19:21:58.002Z,12.50
2019-02-21T19:24:26.230Z,12.30
2019-02-21T19:26:54.435Z,12.40
2019-02-21T19:29:22.556Z,12.50
2019-02-21T19:31:50.770Z,12.50
2019-02-21T19:34:22.014Z,12.40
2019-02-21T19:36:50.070Z,12.40
2019-02-21T19:39:18.182Z,12.20
2019-02-21T19:41:46.214Z,12.10
2019-02-21T19:44:14.380Z,12.00
2019-02-21T19:46:45.469Z,11.90
2019-02-21T19:49:13.489Z,11.90
2019-02-21T19:51:41.439Z,11.90
2019-02-21T19:54:09.701Z,11.90
2019-02-21T19:56:37.830Z,11.90
2019-02-21T19:59:14.152Z,11.70
2019-02-21T20:01:42.249Z,11.70
2019-02-21T20:04:10.373Z,11.80
2019-02-21T20:06:38.401Z,11.70
2019-02-21T20:09:06.640Z,11.70
2019-02-21T20:11:36.798Z,11.60
2019-02-21T20:14:05.161Z,11.50
2019-02-21T20:16:33.521Z,11.50
2019-02-21T20:19:01.541Z,11.50
2019-02-21T20:21:29.586Z,11.40
2019-02-21T20:24:01.331Z,11.30
2019-02-21T20:26:29.389Z,11.40
2019-02-21T20:28:57.509Z,11.50
2019-02-21T20:31:25.462Z,11.20
2019-02-21T20:33:53.888Z,11.20
2019-02-21T20:36:25.009Z,11.30
2019-02-21T20:38:53.550Z,11.40
2019-02-21T20:41:21.593Z,11.40
2019-02-21T20:43:49.785Z,11.30
2019-02-21T20:46:17.989Z,11.40
2019-02-21T20:48:47.466Z,11.40
2019-02-21T20:51:17.360Z,11.40
2019-02-21T20:53:46.264Z,11.40
2019-02-21T20:56:14.338Z,11.40
2019-02-21T20:58:42.932Z,11.30
2019-02-21T21:01:16.133Z,11.30
2019-02-21T21:03:44.295Z,11.30
2019-02-21T21:06:12.595Z,11.30
2019-02-21T21:08:44.268Z,11.30
2019-02-21T21:11:10.781Z,11.30
2019-02-21T21:13:43.910Z,11.20
2019-02-21T21:16:11.487Z,11.10
2019-02-21T21:18:39.956Z,11.10
2019-02-21T21:21:08.100Z,11.10
2019-02-21T21:23:37.034Z,11.10
2019-02-21T21:26:08.978Z,11.10
2019-02-21T21:28:37.380Z,11.10
2019-02-21T21:31:05.615Z,11.00
2019-02-21T21:33:34.184Z,11.00
2019-02-21T21:36:02.423Z,11.00
2019-02-21T21:38:30.908Z,11.00
2019-02-21T21:41:00.045Z,11.00
2019-02-21T21:43:28.498Z,11.00
2019-02-21T21:45:56.732Z,11.00
2019-02-21T21:48:25.055Z,10.80
2019-02-21T21:50:53.651Z,10.80
2019-02-21T21:53:24.907Z,10.80
2019-02-21T21:55:53.156Z,10.90
2019-02-21T21:58:21.629Z,10.90
2019-02-21T22:00:49.662Z,10.90
2019-02-21T22:03:18.229Z,10.90
2019-02-21T22:05:48.605Z,10.90
2019-02-21T22:08:17.197Z,10.90
2019-02-21T22:10:45.725Z,10.90
2019-02-21T22:13:14.318Z,10.90
2019-02-21T22:15:42.710Z,10.90
2019-02-21T22:18:15.340Z,10.90
2019-02-21T22:20:43.531Z,10.90
2019-02-21T22:23:11.639Z,10.90
2019-02-21T22:25:39.918Z,10.90
2019-02-21T22:28:08.076Z,11.00
2019-02-21T22:30:41.908Z,10.90
2019-02-21T22:33:10.737Z,10.90
2019-02-21T22:35:39.416Z,10.90
2019-02-21T22:38:08.090Z,10.90
2019-02-21T22:40:36.401Z,10.90
2019-02-21T22:43:05.072Z,10.90
2019-02-21T22:45:33.758Z,10.90
2019-02-21T22:48:01.777Z,10.90
2019-02-21T22:50:29.930Z,10.90
2019-02-21T22:52:58.357Z,10.90
2019-02-21T22:55:26.521Z,10.90
2019-02-21T22:57:57.569Z,10.90
2019-02-21T23:00:47.604Z,11.00
2019-02-21T23:03:17.561Z,11.00
2019-02-21T23:06:33.847Z,11.00
2019-02-21T23:09:03.286Z,11.00
2019-02-21T23:11:32.073Z,10.90
2019-02-21T23:14:00.426Z,11.00
2019-02-21T23:16:28.822Z,11.00
2019-02-21T23:18:56.950Z,11.00
2019-02-21T23:21:25.144Z,11.00
2019-02-21T23:23:53.283Z,11.00
2019-02-21T23:26:21.502Z,11.00
2019-02-21T23:28:49.545Z,10.90
2019-02-21T23:31:17.745Z,10.90
2019-02-21T23:33:49.613Z,10.90
2019-02-21T23:36:17.747Z,10.90
2019-02-21T23:38:45.965Z,10.90
2019-02-21T23:41:14.162Z,10.90
2019-02-21T23:43:42.553Z,11.00
2019-02-21T23:46:11.392Z,11.00
2019-02-21T23:48:39.546Z,11.10
2019-02-21T23:51:07.719Z,11.10
2019-02-21T23:53:35.733Z,11.10
2019-02-21T23:56:03.850Z,11.10
2019-02-21T23:58:31.993Z,11.00
